Date,TemperatureHighF,TemperatureAvgF,TemperatureLowF,DewpointHighF,DewpointAvgF,DewpointLowF,HumidityHigh,HumidityAvg,HumidityLow,PressureMaxIn,PressureMinIn,WindSpeedMaxMPH,WindSpeedAvgMPH,GustSpeedMaxMPH,PrecipitationSumIn
2013-1-1,50.0,48.3,44.6,47.3,39.7,27.9,91,74,46,30.19,30.02,4,1,6,0.00
2013-1-2,50.5,48.4,45.0,47.3,43.5,38.7,92,84,72,30.24,29.98,3,1,5,0.00
2013-1-3,45.7,41.3,30.2,39.0,35.7,25.8,84,80,74,30.39,30.19,2,0,4,0.00
2013-1-4,54.3,36.7,24.8,32.2,23.0,13.5,85,61,30,30.45,30.28,6,1,8,0.00
2013-1-5,50.5,37.6,24.1,31.3,22.6,15.0,73,56,36,30.50,30.31,4,0,5,0.00
2013-1-6,58.5,46.1,36.5,40.9,35.2,26.4,79,66,51,30.32,30.11,4,1,9,0.00
2013-1-7,55.0,38.4,28.2,32.2,26.1,21.3,81,63,34,30.52,30.31,4,0,7,0.00
2013-1-8,52.9,39.7,26.8,38.4,30.5,19.6,82,70,54,30.56,30.42,2,0,4,0.00
2013-1-9,67.6,52.8,38.8,50.9,43.4,34.1,85,71,54,30.53,30.42,4,0,7,0.00
2013-1-10,71.8,57.4,46.4,51.4,45.9,41.2,87,67,46,30.58,30.43,3,1,5,0.00
2013-1-11,55.6,50.4,48.0,49.1,46.9,44.4,91,88,66,30.44,30.24,3,1,4,0.00
2013-1-12,73.2,59.9,48.9,64.1,55.0,46.4,92,84,69,30.25,30.14,4,0,8,0.00
2013-1-13,73.9,64.0,58.3,61.8,57.2,54.4,88,79,62,30.20,30.09,5,1,8,0.00
2013-1-14,65.8,63.5,61.2,62.5,59.4,56.5,90,86,80,30.19,30.12,4,1,6,0.00
2013-1-15,63.1,50.2,42.8,59.8,47.7,40.9,93,91,88,30.26,30.15,5,1,8,0.00
2013-1-16,50.9,46.3,42.3,48.7,44.3,40.7,94,93,91,30.16,30.05,6,1,8,0.00
2013-1-17,52.0,46.4,33.3,49.4,44.0,29.9,92,91,86,30.29,29.87,9,2,17,0.00
2013-1-18,52.0,37.5,29.5,32.9,27.0,22.6,89,69,35,30.61,30.30,4,0,5,0.00
2013-1-19,58.1,37.3,24.3,32.8,24.7,18.7,83,63,30,30.60,30.25,4,1,6,0.00
2013-1-20,68.5,49.0,35.6,37.3,28.0,22.7,66,46,25,30.25,30.05,8,2,11,5.87
2013-1-21,64.9,44.5,28.6,35.4,23.8,12.1,79,49,23,30.18,29.97,9,2,14,0.00
2013-1-22,47.7,36.2,26.2,14.9,6.4,-2.1,40,29,21,30.37,30.09,12,2,20,0.00
2013-1-23,50.9,34.3,20.7,26.2,13.9,1.6,63,44,25,30.45,30.14,5,1,8,0.00
2013-1-24,51.1,37.9,26.1,31.5,14.7,-2.7,74,42,22,30.61,30.06,8,2,17,0.00
2013-1-25,28.4,25.6,19.9,20.0,11.3,0.1,74,55,32,30.63,30.22,2,0,4,0.00
2013-1-26,49.1,33.7,26.2,35.9,25.8,19.1,83,73,53,30.47,30.20,3,0,4,0.00
2013-1-27,47.3,37.0,25.7,27.6,24.2,17.3,81,61,42,30.66,30.47,4,1,6,0.00
2013-1-28,52.3,43.2,34.9,44.3,34.2,26.8,81,71,59,30.57,30.32,5,1,8,0.00
2013-1-29,76.1,59.0,43.7,57.2,49.5,39.2,87,72,50,30.33,30.09,6,1,10,0.00
2013-1-30,73.9,65.9,50.2,59.8,56.9,44.9,85,73,54,30.09,29.48,12,3,22,0.00
2013-1-31,54.0,44.4,37.4,44.9,26.9,16.2,83,52,30,30.12,29.62,17,5,21,0.00
2013-2-1,46.0,36.8,24.8,25.9,10.7,-0.9,55,35,21,30.49,30.00,11,3,17,0.00
2013-2-2,48.0,34.9,22.1,32.3,14.1,4.5,71,44,22,30.50,30.12,11,2,21,0.00
2013-2-3,60.3,42.3,31.1,32.5,25.0,14.8,77,54,21,30.12,29.89,11,3,18,0.00
2013-2-4,55.9,39.6,27.5,25.4,21.1,4.6,66,49,26,30.49,30.07,5,1,9,0.00
2013-2-5,68.2,50.8,36.7,39.6,32.5,23.7,72,51,32,30.07,29.91,10,2,14,0.00
2013-2-6,69.4,49.0,32.9,38.4,29.9,23.2,85,53,21,30.30,30.05,4,1,5,0.00
2013-2-7,44.8,40.4,36.9,38.2,33.0,25.4,92,76,59,30.36,30.08,5,2,8,0.00
2013-2-8,62.8,46.9,38.5,49.2,38.0,28.2,93,74,43,30.20,29.91,8,2,12,0.00
2013-2-9,40.8,33.7,29.8,28.7,24.8,22.7,75,70,61,30.30,30.20,2,0,3,0.00
2013-2-16,41.7,33.8,24.3,33.9,28.1,19.0,85,80,71,30.12,29.91,2,0,4,0.01
2013-2-17,45.1,30.4,19.4,24.5,16.0,11.3,80,58,30,30.37,30.12,11,1,16,0.00
2013-2-18,57.6,39.0,21.4,28.2,21.2,11.8,73,51,30,30.48,30.29,6,1,8,0.00
2013-2-19,51.6,42.0,36.3,45.5,33.9,20.1,91,74,51,30.30,29.94,8,2,12,0.00
2013-2-20,58.3,41.8,27.3,23.8,17.5,9.2,63,40,20,30.20,30.07,6,1,8,0.00
2013-2-21,62.8,42.7,25.5,34.9,19.8,10.3,72,43,19,30.34,30.13,7,1,8,0.00
2013-2-22,42.8,38.8,37.2,36.9,35.9,34.3,93,89,73,30.40,30.19,3,1,4,0.00
2013-2-23,43.9,40.3,36.7,42.1,38.3,34.0,95,92,90,30.23,29.92,3,1,5,0.00
2013-2-24,68.9,51.1,41.9,47.3,38.5,26.1,96,68,31,30.10,29.92,6,1,10,0.00
2013-2-25,44.2,41.3,36.9,29.2,26.9,24.0,69,56,52,30.26,30.10,7,2,9,0.00
2013-2-26,40.8,37.6,33.4,39.8,34.4,24.2,96,89,55,30.17,29.68,7,2,9,0.00
2013-2-27,60.8,47.3,36.0,43.6,38.1,33.1,97,73,47,29.89,29.74,8,3,12,0.00
2013-2-28,54.5,42.5,33.8,35.1,28.7,21.9,84,59,38,29.99,29.81,10,2,12,0.00
2013-3-1,51.3,40.2,27.5,32.5,26.8,19.7,79,60,44,30.03,29.93,7,1,11,0.00
2013-3-2,49.6,39.1,30.2,38.9,30.2,20.4,83,70,56,30.04,29.89,5,1,10,0.00
2013-3-3,51.8,35.0,22.6,23.7,17.8,10.9,75,52,29,30.11,29.94,8,2,11,0.00
2013-3-4,59.0,40.4,23.0,23.2,16.8,11.2,65,42,20,30.25,30.07,7,1,12,0.00
2013-3-5,53.1,45.5,39.2,44.6,35.1,22.0,91,68,42,30.15,29.69,5,1,9,0.00
2013-3-6,53.1,41.0,32.4,40.9,27.5,21.2,92,60,39,30.23,29.70,14,4,23,0.00
2013-3-7,59.7,41.0,27.1,33.0,25.1,19.4,80,56,31,30.37,30.19,6,1,9,0.00
2013-3-8,60.3,41.8,25.7,27.1,22.2,18.2,77,50,22,30.43,30.26,8,1,12,0.00
2013-3-9,67.8,46.4,27.1,35.8,27.4,19.7,79,52,24,30.45,30.28,4,1,7,0.00
2013-3-14,55.0,45.9,37.2,20.9,17.6,14.0,51,33,20,30.29,30.21,6,1,11,0.01
2013-3-15,70.9,47.9,28.9,38.4,26.3,17.1,71,45,29,30.30,29.95,8,2,60,5.87
2013-3-16,81.9,75.6,67.1,47.8,43.7,40.2,40,32,28,29.90,29.74,11,6,20,0.00
2013-3-17,80.2,62.4,47.1,53.4,44.5,39.4,75,53,32,30.17,29.90,8,2,12,0.00
2013-3-18,47.1,42.8,40.6,41.4,39.7,38.3,95,89,75,30.22,29.94,7,2,12,0.00
2013-3-19,71.6,52.8,40.5,47.7,33.1,12.1,97,59,19,30.12,29.92,10,3,17,0.00
2013-3-20,62.2,51.2,43.5,24.6,15.3,8.1,37,24,19,30.19,29.86,8,2,12,0.00
2013-3-21,52.7,40.5,29.5,27.0,12.3,3.5,54,32,22,30.08,29.87,10,3,17,0.00
2013-3-22,58.3,40.5,25.0,24.7,16.7,10.0,62,40,21,30.18,30.02,7,1,12,0.00
2013-3-23,56.3,46.2,40.8,43.1,35.3,24.2,84,67,42,30.13,29.96,3,0,4,0.00
2013-3-24,43.7,41.6,39.2,41.8,39.2,36.7,94,91,84,30.02,29.62,5,2,9,0.00
2013-3-25,52.9,42.9,37.4,38.8,30.2,18.2,96,66,32,29.99,29.64,15,4,21,0.00
2013-3-26,49.6,39.8,28.4,29.2,24.0,20.0,72,54,41,30.28,29.98,7,2,12,0.00
2013-3-27,59.5,41.9,27.7,27.7,22.1,18.3,75,48,25,30.35,30.22,9,2,13,0.00
2013-3-28,62.1,43.8,27.5,28.1,21.6,18.0,74,45,20,30.40,30.23,8,1,11,0.00
2013-3-29,66.9,48.0,28.0,40.1,26.5,20.5,80,48,20,30.45,30.22,8,1,11,0.01
2013-3-30,69.1,55.2,45.7,50.6,44.0,40.1,93,69,40,30.30,30.11,5,1,8,0.00
2013-3-31,72.7,59.5,51.4,60.5,51.3,37.7,92,76,38,30.11,29.84,9,2,15,5.87
2013-4-1,78.3,63.4,52.7,54.0,44.6,36.0,90,56,23,30.03,29.88,11,2,14,0.00
2013-4-2,70.9,55.8,40.8,38.2,31.6,21.2,74,43,16,30.23,30.03,8,2,10,0.00
2013-4-3,64.4,53.9,44.1,29.9,21.6,14.5,43,29,20,30.35,30.18,5,2,8,0.00
2013-4-4,50.5,42.6,36.5,38.1,31.5,21.6,93,68,36,30.35,30.07,6,2,10,0.00
2013-4-5,69.6,51.3,36.7,48.2,40.1,31.4,96,70,30,30.12,29.95,5,1,8,0.00
2013-4-6,73.8,55.6,36.5,42.0,36.3,31.4,89,54,23,30.29,30.12,4,1,6,0.00
2013-4-7,75.6,59.9,43.7,53.1,44.9,37.3,82,60,35,30.34,30.13,6,1,11,0.00
2013-4-8,81.1,66.7,52.0,58.7,51.9,47.1,89,62,38,30.23,30.08,7,2,11,0.00
2013-4-9,88.7,71.4,55.8,61.0,55.2,41.4,85,59,37,30.25,30.06,7,1,10,5.87
2013-4-10,89.8,74.4,61.7,61.9,57.8,54.8,83,59,36,30.16,29.98,6,2,10,0.00
2013-4-11,84.9,71.4,61.5,66.3,60.5,54.5,90,70,46,30.04,29.77,7,1,10,0.00
2013-4-12,84.4,72.6,61.2,65.8,56.5,37.1,95,63,25,29.88,29.65,15,4,21,0.01
2013-4-13,80.2,62.6,44.2,49.5,41.7,35.2,88,51,22,30.09,29.88,5,1,8,0.00
2013-4-14,80.1,62.0,45.0,53.2,45.7,40.3,87,59,29,30.17,30.04,5,0,10,0.00
2013-4-15,71.8,62.1,57.4,62.2,56.9,53.3,92,83,69,30.27,30.04,4,0,6,0.00
2013-4-16,84.2,68.0,57.7,64.9,58.3,55.1,92,74,46,30.35,30.20,4,0,8,0.00
2013-4-17,84.9,70.5,59.0,65.4,58.9,54.8,90,69,42,30.32,30.13,4,1,7,0.00
2013-4-18,83.7,71.6,63.0,64.2,60.4,57.9,85,70,45,30.22,30.02,6,0,9,0.00
2013-4-19,80.4,67.9,54.5,67.6,61.5,51.3,92,81,60,30.04,29.78,11,2,17,0.01
2013-4-20,68.4,54.7,42.3,51.6,37.6,29.4,90,56,28,30.35,29.97,8,1,10,0.00
2013-4-21,66.6,53.1,40.1,44.6,39.2,34.7,83,61,41,30.51,30.35,5,1,9,0.00
2013-4-22,66.2,53.2,41.7,40.3,35.8,29.2,82,55,28,30.52,29.93,7,2,10,0.00
2013-4-23,75.6,58.1,43.9,53.7,45.3,34.7,78,64,44,30.35,30.14,4,1,7,0.00
2013-4-24,77.2,63.4,52.2,60.2,53.8,48.6,91,73,49,30.21,30.04,11,3,18,0.00
2013-4-25,74.1,62.1,43.9,56.5,44.1,31.0,85,55,22,30.36,29.93,5,1,8,0.00
2013-4-26,77.0,60.1,42.8,45.8,39.2,34.8,73,49,23,30.49,30.35,4,1,6,0.00
2013-4-27,68.9,59.2,55.8,56.4,51.5,45.1,93,76,58,30.42,30.31,5,0,9,0.00
2013-4-28,57.7,56.0,54.9,56.3,54.6,53.5,97,95,94,30.32,30.11,3,0,6,0.00
2013-4-29,74.7,63.0,56.5,65.9,58.9,55.6,98,87,63,30.12,29.97,4,0,8,0.00
2013-4-30,74.8,63.1,55.4,64.4,58.2,53.6,95,85,63,30.24,30.04,3,1,5,0.00
2013-5-1,66.0,59.9,53.1,57.5,55.0,51.0,95,84,73,30.36,30.24,4,1,8,0.00
2013-5-2,62.6,59.4,57.2,57.6,55.9,54.6,95,88,81,30.37,30.28,4,1,6,0.00
2013-5-3,69.1,61.6,56.1,55.6,53.0,49.0,90,74,59,30.31,30.17,4,2,10,0.00
2013-5-4,63.9,56.5,50.9,51.6,47.5,42.7,82,72,61,30.21,30.05,4,2,8,0.00
2013-5-5,59.5,54.4,51.6,57.5,51.2,47.8,95,89,80,30.10,29.89,5,2,8,0.00
2013-5-6,72.9,62.4,55.9,63.7,55.0,46.7,95,79,47,29.96,29.87,8,2,12,0.03
2013-5-7,77.7,59.5,46.6,54.6,49.4,44.4,93,72,43,30.03,29.89,14,1,19,0.00
2013-5-8,81.0,65.1,51.1,59.7,54.3,49.1,94,71,42,30.08,29.96,8,2,14,0.00
2013-5-9,85.3,68.2,52.0,61.4,55.2,49.4,93,67,38,30.15,30.05,6,1,10,0.00
2013-5-10,87.3,71.4,55.6,64.1,58.7,53.0,92,67,42,30.15,29.98,8,2,12,0.00
2013-5-11,83.3,72.2,64.2,66.3,60.9,52.3,86,69,47,30.17,29.83,11,2,14,5.90
2013-5-12,79.2,66.5,54.9,60.5,47.8,33.8,87,55,24,30.12,29.90,8,2,12,0.00
2013-5-13,73.4,58.4,42.6,43.3,35.9,25.3,82,47,20,30.25,30.09,8,1,12,0.00
2013-5-14,77.9,61.4,41.7,47.0,41.1,29.7,82,50,31,30.34,30.13,7,1,10,0.00
2013-5-15,93.0,74.5,55.6,65.4,56.8,46.5,83,56,37,30.15,29.96,7,2,11,0.00
2013-5-16,87.1,74.0,60.1,63.9,59.0,54.6,84,61,40,30.08,29.98,7,1,12,0.00
2013-5-17,89.2,75.3,61.3,66.5,61.7,58.1,90,65,42,30.13,30.04,58,1,58,5.90
2013-5-18,72.3,69.6,65.5,65.6,62.6,60.4,85,79,73,30.21,30.12,3,0,4,0.00
2013-6-9,73.0,72.0,71.6,68.0,67.5,66.5,88,86,82,30.13,30.12,2,0,2,9.01
2013-6-10,84.9,75.3,68.7,74.2,69.0,64.6,92,81,65,30.06,29.94,8,2,17,0.00
2013-6-11,68.7,68.4,68.2,65.5,65.2,65.0,90,90,89,30.02,30.01,3,2,4,0.00
2013-6-12,96.1,91.0,83.7,73.7,70.9,68.8,63,52,44,30.03,29.96,7,2,9,0.07
2013-6-13,96.6,82.3,69.3,74.1,69.6,65.7,91,69,43,29.87,29.67,13,2,21,0.00
2013-6-14,84.9,73.4,61.7,66.5,58.6,53.1,91,63,36,30.09,29.83,7,1,12,0.00
2013-6-15,88.2,73.7,59.2,65.2,60.2,56.2,91,66,40,30.19,30.08,6,1,9,0.00
2013-6-16,90.5,77.5,66.2,69.9,64.6,60.3,83,66,45,30.20,30.04,7,2,12,0.00
2013-6-17,89.6,76.4,70.9,73.2,68.2,64.8,91,77,55,30.09,29.96,7,1,9,0.00
2013-6-18,87.3,74.9,70.5,74.2,69.9,64.7,93,85,61,30.03,29.81,7,1,12,0.00
2013-6-19,85.3,75.5,68.4,70.2,66.6,63.6,93,76,49,30.15,29.95,3,0,4,0.00
2013-6-20,84.7,73.6,64.9,69.0,64.7,62.6,94,76,53,30.28,30.15,3,0,4,0.00
2013-6-21,86.4,74.1,62.4,66.4,62.8,58.4,93,70,48,30.32,30.08,3,1,5,0.00
2013-6-22,87.3,74.4,61.0,69.3,63.7,57.7,89,71,49,30.29,30.14,3,0,5,0.00
2013-6-23,90.1,77.7,67.6,74.9,68.5,64.9,91,75,50,30.25,30.14,4,0,6,0.00
2013-6-24,91.8,79.1,70.2,74.5,69.9,66.7,90,75,55,30.25,30.13,5,1,8,0.00
2013-6-25,93.9,79.5,70.9,73.6,69.9,67.7,90,74,45,30.20,30.04,6,1,10,0.00
2013-6-26,94.5,77.6,69.6,74.4,70.2,66.4,92,80,48,30.10,29.93,6,1,13,0.00
2013-6-27,91.4,79.7,72.9,76.1,72.4,68.8,93,80,57,29.99,29.75,8,2,13,0.00
2013-6-28,95.0,79.7,70.2,76.2,71.5,67.9,95,78,47,29.82,29.61,8,1,14,0.00
2013-6-29,89.6,78.1,70.7,75.3,70.6,67.7,94,79,54,29.75,29.64,5,1,8,0.00
2013-6-30,89.2,75.8,68.2,74.4,69.1,65.7,92,81,57,29.89,29.74,3,0,5,0.00
2013-7-1,84.4,74.5,67.8,73.3,69.2,65.6,94,84,65,30.00,29.86,3,0,4,0.00
2013-7-2,79.3,73.9,72.0,75.1,70.7,68.5,93,90,84,30.18,30.00,3,0,5,0.00
2013-7-3,79.9,75.1,72.7,74.5,72.0,69.9,95,90,80,30.25,30.15,2,0,3,0.00
2013-7-4,88.5,77.0,70.9,76.4,71.5,67.1,94,84,59,30.29,30.16,8,0,11,0.00
2013-7-5,82.8,75.4,72.9,76.4,72.2,69.3,94,90,79,30.28,30.22,4,0,8,0.00
2013-7-6,86.7,76.8,71.6,77.0,71.5,69.1,94,84,61,30.28,30.14,4,0,7,0.00
2013-7-7,88.7,78.5,73.0,77.1,71.7,68.1,93,81,58,30.24,30.09,5,1,8,0.00
2013-7-8,82.9,75.5,72.5,74.7,71.2,69.4,93,87,72,30.23,30.17,3,0,4,0.00
2013-7-11,79.7,76.5,73.0,75.8,73.3,70.3,93,90,86,30.02,29.91,2,0,3,0.00
2013-7-12,82.6,75.4,71.1,72.5,69.2,65.6,93,82,62,30.05,29.93,4,1,6,0.00
2013-7-13,81.7,74.4,69.8,71.5,68.0,65.1,92,81,69,30.15,30.05,3,1,5,0.00
2013-7-14,86.7,77.0,72.0,76.3,70.9,67.5,93,82,61,30.33,30.13,4,0,5,0.00
2013-7-15,89.1,77.9,69.6,72.8,69.5,67.0,93,77,55,30.38,30.26,4,0,6,0.00
2013-7-16,93.6,80.8,69.8,73.9,69.3,65.7,91,71,44,30.36,30.23,4,0,5,0.00
2013-7-17,93.4,77.8,71.1,75.2,70.3,65.3,89,79,53,30.29,30.16,8,0,14,0.00
2013-7-18,90.7,77.2,69.6,78.1,71.1,66.7,92,82,56,30.24,30.09,2,0,4,0.00
2013-7-19,93.7,81.3,72.9,76.7,72.3,70.1,94,76,51,30.17,30.01,5,1,8,0.00
2013-7-20,88.3,78.5,73.2,74.7,71.0,67.4,88,78,62,30.08,29.96,5,1,8,0.00
2013-7-21,92.3,77.1,71.4,74.8,70.6,65.8,93,82,54,30.05,29.93,7,1,11,0.00
2013-7-22,87.8,77.2,71.2,74.8,71.2,69.1,93,83,61,30.05,29.87,5,1,8,0.00
2013-7-23,91.8,80.5,72.5,72.5,69.3,66.2,89,71,48,29.91,29.79,8,2,14,0.00
2013-7-24,93.9,80.6,71.6,72.7,69.0,64.4,90,70,45,29.89,29.75,3,0,59,14.98
2013-7-25,85.5,76.5,70.2,68.9,66.6,64.8,87,73,54,30.06,29.88,3,1,7,0.00
2013-7-26,87.4,76.9,68.5,70.5,67.1,65.4,91,73,53,30.15,30.03,4,0,5,0.00
2013-7-27,78.8,74.4,70.2,71.9,69.2,66.4,90,84,77,30.07,29.95,5,0,8,0.00
2013-7-28,88.7,75.9,68.7,72.2,68.6,64.2,92,79,55,30.05,29.94,7,1,11,0.00
2013-7-29,87.8,75.9,68.2,71.6,67.0,64.8,93,76,50,30.21,30.05,3,0,4,0.00
2013-7-30,87.1,75.7,66.7,69.5,65.9,63.0,91,73,50,30.28,30.16,3,0,5,0.00
2013-7-31,83.7,75.5,71.8,72.8,69.2,65.7,90,81,64,30.21,30.03,5,0,13,0.00
2013-8-1,87.4,76.4,72.0,73.7,69.4,64.6,88,80,57,30.04,29.91,4,1,8,0.00
2013-8-2,89.2,77.9,69.6,71.8,68.7,66.9,92,75,51,30.08,29.97,3,0,5,0.00
2013-8-3,91.2,80.4,73.2,74.4,69.9,66.4,92,73,48,30.08,29.96,6,1,10,0.00
2013-8-4,87.8,77.8,69.4,70.1,66.9,64.7,87,71,49,30.08,29.97,3,0,5,0.00
2013-8-5,85.5,76.4,69.6,69.7,65.8,63.7,86,71,52,30.12,30.00,4,0,8,0.00
2013-8-6,75.7,72.7,69.1,70.0,67.2,63.4,90,83,69,30.11,30.03,3,0,7,0.00
2013-8-7,83.8,75.9,71.4,74.2,69.2,66.8,92,80,64,30.14,30.04,3,0,4,0.00
2013-8-8,89.1,79.1,73.0,78.4,70.4,67.4,88,75,59,30.11,30.01,4,1,8,0.00
2013-8-9,93.4,80.6,73.0,75.5,71.1,67.4,90,74,53,30.11,30.02,6,1,10,0.00
2013-8-10,95.0,79.9,73.8,75.4,71.2,65.8,90,76,50,30.16,30.06,6,1,11,0.00
2013-8-11,95.4,80.2,71.6,73.2,69.7,67.2,89,72,45,30.18,30.05,4,1,8,0.00
2013-8-12,94.1,80.9,72.0,73.4,70.4,68.4,92,72,48,30.12,29.97,4,0,8,0.00
2013-8-13,91.8,79.1,72.5,73.7,70.2,63.9,89,76,49,30.01,29.81,8,1,14,0.00
2013-8-14,79.7,73.4,65.8,70.6,64.0,58.0,90,74,53,30.13,29.91,3,0,5,0.00
2013-8-15,76.5,67.8,60.6,60.1,58.0,56.4,90,72,52,30.21,30.12,3,0,5,0.00
2013-8-16,72.1,65.6,60.3,62.3,58.5,56.1,88,78,62,30.23,30.14,2,0,4,0.00
2013-8-17,66.9,64.6,62.1,63.9,61.0,57.2,94,88,79,30.25,30.18,3,0,6,0.00
2013-8-18,81.0,71.9,64.9,70.3,66.8,63.2,95,85,67,30.27,30.16,3,0,4,0.00
2013-8-19,78.4,72.5,69.3,70.9,68.2,66.3,92,87,72,30.25,30.13,3,0,6,0.00
2013-8-20,79.7,73.4,67.3,71.6,67.9,65.2,93,83,68,30.24,30.16,2,0,3,0.00
2013-8-21,79.7,74.1,70.7,73.3,69.5,67.0,92,86,76,30.28,30.16,4,0,8,0.00
2013-8-22,71.1,70.1,69.1,68.6,67.4,66.7,92,91,90,30.21,30.19,2,0,2,0.00
2013-11-12,38.7,35.2,30.4,33.6,22.5,13.8,84,61,45,30.57,30.36,8,3,14,0.00
2013-11-13,48.7,33.6,22.5,21.5,16.9,12.3,72,52,28,30.64,30.52,4,0,6,0.00
2013-11-14,62.6,38.8,24.3,28.8,21.8,18.5,82,55,22,30.58,30.38,6,1,10,0.00
2013-11-15,59.7,46.0,30.2,45.9,35.2,22.1,92,67,41,30.43,30.24,2,0,3,0.00
2013-11-16,66.4,55.3,48.2,57.4,51.5,45.9,96,88,70,30.34,30.23,2,0,3,0.00
2013-11-17,70.7,60.6,52.9,64.8,57.3,51.1,97,89,67,30.28,29.94,5,0,7,0.00
2013-11-18,79.9,65.4,53.1,66.6,49.3,28.4,96,62,26,30.07,29.87,12,2,15,0.00
2013-11-19,57.4,47.5,38.8,32.1,27.2,22.3,66,47,27,30.36,30.06,4,1,7,0.00
2013-11-20,54.9,44.4,34.5,33.9,30.8,25.4,72,59,42,30.52,30.33,5,1,8,0.00
2013-11-21,56.5,50.0,44.6,44.1,39.2,32.5,72,66,61,30.56,30.43,3,1,6,0.00
2013-11-22,65.8,57.4,50.0,57.5,51.4,43.2,89,80,72,30.46,30.17,6,1,9,0.00
2013-11-23,61.2,55.4,42.8,56.8,44.6,19.0,97,70,35,30.29,30.11,4,1,8,0.00
2013-11-24,43.9,35.0,25.9,24.6,10.0,0.6,52,36,22,30.62,30.29,7,1,9,0.00
2013-11-25,43.3,32.6,20.1,21.6,11.8,6.5,66,44,24,30.67,30.43,4,0,5,0.00
2013-11-26,44.8,37.8,32.5,44.0,33.4,20.0,99,86,50,30.43,29.67,4,1,8,0.00
2013-11-27,45.9,39.2,28.2,45.1,33.9,15.4,99,82,56,30.30,29.60,8,2,11,0.00
2013-11-28,48.0,31.8,21.0,28.2,20.0,14.1,81,62,40,30.58,30.30,4,0,7,0.00
2013-11-29,54.5,36.5,23.9,32.8,23.7,19.5,88,63,30,30.69,30.29,3,0,4,0.00
2013-11-30,48.9,35.8,26.8,27.5,23.3,18.7,78,61,41,30.75,30.47,4,1,8,0.00
2013-12-1,61.3,39.9,27.3,39.6,30.6,21.4,84,71,40,30.47,30.11,5,0,8,0.00
2013-12-2,60.6,43.8,29.1,42.2,34.8,27.1,95,73,42,30.12,29.86,3,0,5,0.00
2013-12-3,62.8,53.2,44.1,52.8,46.6,38.3,87,79,67,30.03,29.93,4,0,6,0.00
2013-12-4,63.1,57.6,53.4,60.3,55.3,49.8,97,92,84,30.13,30.00,3,0,4,0.00
2013-12-5,66.4,63.3,59.9,64.9,61.9,58.5,96,95,93,30.16,30.07,5,1,8,0.00
2013-12-6,77.9,69.7,65.5,64.8,63.3,61.1,96,81,60,30.11,30.00,9,3,14,0.00
2013-12-7,69.3,56.6,47.5,63.7,50.7,39.8,94,81,68,30.49,30.04,7,2,8,0.00
2013-12-8,47.3,39.0,35.1,40.1,35.1,33.0,94,86,71,30.50,30.36,4,2,6,0.00
2013-12-9,45.5,40.6,35.2,44.7,39.8,33.9,99,97,94,30.36,30.11,2,0,4,0.00
2013-12-10,54.1,44.6,29.7,52.0,38.3,22.9,99,81,42,30.43,29.98,10,1,14,0.00
2013-12-11,53.2,35.3,23.9,30.8,24.0,19.5,88,66,33,30.55,30.36,7,1,8,0.00
2013-12-12,52.5,35.5,25.3,25.6,18.1,3.8,83,54,22,30.50,30.38,4,1,7,0.00
2013-12-13,54.1,35.8,26.6,31.3,20.8,13.8,73,55,31,30.48,30.31,6,1,8,0.00
2013-12-14,47.1,40.3,38.1,39.9,35.8,30.4,97,84,72,30.34,29.88,6,1,9,0.00
2013-12-15,57.0,42.6,31.1,45.7,35.4,23.7,99,78,48,30.21,29.82,6,1,11,0.00
2013-12-16,60.1,39.7,29.1,39.5,29.1,23.5,82,68,40,30.27,30.12,4,1,7,0.00
2013-12-17,64.6,46.5,32.2,38.4,31.7,26.4,80,59,36,30.22,29.97,8,2,14,0.00
2013-12-18,46.9,34.5,32.2,30.7,19.7,17.9,58,54,43,30.38,30.13,5,1,11,0.00
2013-12-19,65.7,43.1,32.2,29.9,22.1,18.7,57,46,19,30.42,30.25,7,1,10,0.00
2013-12-20,63.7,50.9,40.3,50.4,41.9,30.1,91,72,57,30.31,30.19,8,1,14,0.00
2013-12-21,72.5,60.0,48.4,62.0,55.3,46.7,96,85,67,30.22,30.04,4,0,8,0.00
2013-12-22,71.6,67.0,63.3,68.6,64.4,61.9,97,91,84,30.12,30.02,6,1,8,0.00
2013-12-23,64.2,58.5,46.8,63.3,56.5,39.3,99,93,73,30.24,30.04,4,1,8,0.00
2013-12-24,46.6,37.1,34.9,38.7,31.4,30.0,82,80,72,30.53,30.24,10,2,13,0.00
2013-12-25,34.9,34.9,34.9,30.0,30.0,30.0,82,82,82,30.63,30.46,4,1,5,0.00
2013-12-26,34.9,34.9,34.9,30.0,30.0,30.0,82,82,82,30.46,30.32,4,0,6,0.00
2013-12-27,34.9,34.9,34.9,30.0,30.0,30.0,82,82,82,30.56,30.44,4,0,5,0.00
2013-12-28,34.9,34.9,34.9,30.0,30.0,30.0,82,82,82,30.50,30.20,3,0,5,0.00
2013-12-29,34.9,34.9,34.9,30.0,30.0,30.0,82,82,82,30.19,29.87,6,1,9,0.00
2013-12-30,34.9,34.9,34.9,30.0,30.0,30.0,82,82,82,30.20,30.03,3,0,5,0.00
2013-12-31,34.9,34.9,34.9,30.0,30.0,30.0,82,82,82,30.45,30.17,4,1,8,0.00
2014-1-1,34.9,34.9,34.9,30.0,30.0,30.0,82,82,82,30.48,30.22,4,0,4,0.00
2014-1-2,34.9,34.9,34.9,30.0,30.0,30.0,82,82,82,30.23,29.73,11,1,17,0.00